createdAt,value
2022-09-13T00:00:59.832Z,97313.53
2022-09-13T00:03:26.989Z,97302.97
2022-09-13T00:05:53.668Z,97306.78
2022-09-13T00:08:22.693Z,97284.28
2022-09-13T00:10:49.327Z,97296.47
2022-09-13T00:13:17.447Z,97285.91
2022-09-13T00:15:47.283Z,97267.78
2022-09-13T00:18:14.958Z,97291.59
2022-09-13T00:20:41.554Z,97290.78
2022-09-13T00:23:08.617Z,97292.69
2022-09-13T00:25:35.189Z,97282.94
2022-09-13T00:28:02.246Z,97287.81
2022-09-13T00:30:29.101Z,97281.03
2022-09-13T00:32:55.672Z,97275.13
2022-09-13T00:35:24.759Z,97277.81
2022-09-13T00:37:51.304Z,97258.59
2022-09-13T00:40:17.926Z,97274.03
2022-09-13T00:42:44.495Z,97278.88
2022-09-13T00:45:10.950Z,97278.34
2022-09-13T00:47:42.581Z,97267.19
2022-09-13T00:50:25.345Z,97284.75
2022-09-13T00:52:58.893Z,97279.59
2022-09-13T00:55:35.122Z,97288.50
2022-09-13T00:58:07.422Z,97288.19
2022-09-13T01:00:34.180Z,97288.19
2022-09-13T01:03:05.475Z,97277.88
2022-09-13T01:05:38.760Z,97280.81
2022-09-13T01:08:15.598Z,97283.56
2022-09-13T01:10:44.063Z,97298.44
2022-09-13T01:13:16.573Z,97300.66
2022-09-13T01:15:43.715Z,97291.22
2022-09-13T01:18:11.526Z,97283.69
2022-09-13T01:20:46.628Z,97274.22
2022-09-13T01:23:22.891Z,97263.72
2022-09-13T01:26:15.750Z,97243.41
2022-09-13T01:29:14.743Z,97254.47
2022-09-13T01:32:12.811Z,97248.19
2022-09-13T01:35:00.775Z,97254.09
2022-09-13T01:38:14.278Z,97256.44
2022-09-13T01:41:32.822Z,97266.97
2022-09-13T01:44:18.940Z,97274.44
2022-09-13T01:46:49.851Z,97269.56
2022-09-13T01:49:58.925Z,97276.22
2022-09-13T01:52:41.018Z,97255.00
2022-09-13T01:55:28.894Z,97266.50
2022-09-13T01:58:20.922Z,97264.09
2022-09-13T02:01:01.793Z,97245.06
2022-09-13T02:03:38.005Z,97248.88
2022-09-13T02:06:13.538Z,97236.91
2022-09-13T02:08:49.414Z,97251.00
2022-09-13T02:11:20.890Z,97249.94
2022-09-13T02:13:55.244Z,97243.41
2022-09-13T02:16:29.844Z,97252.47
2022-09-13T02:18:59.619Z,97225.78
2022-09-13T02:21:34.751Z,97242.84
2022-09-13T02:24:07.789Z,97314.50
2022-09-13T02:26:37.958Z,97347.28
2022-09-13T02:29:10.433Z,97297.47
2022-09-13T02:31:47.757Z,97329.25
2022-09-13T02:34:23.129Z,97319.63
2022-09-13T02:36:52.964Z,97332.81
2022-09-13T02:39:24.386Z,97319.28
2022-09-13T02:42:12.580Z,97325.59
2022-09-13T02:45:02.356Z,97317.47
2022-09-13T02:47:47.219Z,97337.44
2022-09-13T02:50:44.839Z,97326.25
2022-09-13T02:53:50.617Z,97340.41
2022-09-13T02:56:35.242Z,97347.41
2022-09-13T02:59:17.134Z,97334.22
2022-09-13T03:01:56.959Z,97308.81
2022-09-13T03:04:23.589Z,97313.41
2022-09-13T03:06:50.613Z,97310.28
2022-09-13T03:09:18.004Z,97302.72
2022-09-13T03:12:05.827Z,97320.84
2022-09-13T03:14:55.260Z,97305.47
2022-09-13T03:17:55.663Z,97308.88
2022-09-13T03:20:50.728Z,97306.19
2022-09-13T03:23:35.395Z,97297.28
2022-09-13T03:26:27.611Z,97284.50
2022-09-13T03:28:57.316Z,97270.44
2022-09-13T03:31:33.929Z,97280.31
2022-09-13T03:34:17.711Z,97292.59
2022-09-13T03:36:57.826Z,97294.22
2022-09-13T03:39:52.884Z,97290.03
2022-09-13T03:42:23.805Z,97308.75
2022-09-13T03:44:55.705Z,97300.03
2022-09-13T03:47:25.823Z,97281.81
2022-09-13T03:49:53.491Z,97255.25
2022-09-13T03:52:20.390Z,97291.25
2022-09-13T03:54:46.977Z,97285.06
2022-09-13T03:57:19.866Z,97278.47
2022-09-13T03:59:50.730Z,97285.88
2022-09-13T04:02:18.124Z,97259.97
2022-09-13T04:04:45.949Z,97279.00
2022-09-13T04:07:15.767Z,97282.06
2022-09-13T04:09:42.653Z,97266.72
2022-09-13T04:12:14.185Z,97283.34
2022-09-13T04:14:41.384Z,97270.31
2022-09-13T04:17:07.902Z,97251.16
2022-09-13T04:19:34.432Z,97281.16
2022-09-13T04:22:01.266Z,97264.63
2022-09-13T04:24:29.386Z,97277.34
2022-09-13T04:26:56.540Z,97263.25
2022-09-13T04:29:25.063Z,97263.25
2022-09-13T04:31:53.540Z,97252.16
2022-09-13T04:34:22.309Z,97254.03
2022-09-13T04:36:49.878Z,97264.19
2022-09-13T04:39:20.133Z,97244.88
2022-09-13T04:41:48.371Z,97263.53
2022-09-13T04:44:16.928Z,97244.72
2022-09-13T04:46:46.478Z,97248.16
2022-09-13T04:49:14.855Z,97254.91
2022-09-13T04:51:41.834Z,97230.38
2022-09-13T04:54:14.936Z,97248.84
2022-09-13T04:56:41.979Z,97215.50
2022-09-13T04:59:08.561Z,97226.94
2022-09-13T05:01:35.217Z,97248.84
2022-09-13T05:07:19.254Z,97245.09
2022-09-13T05:09:45.828Z,97240.63
2022-09-13T05:12:12.834Z,97219.25
2022-09-13T05:14:39.827Z,97234.16
2022-09-13T05:17:10.309Z,97231.88
2022-09-13T05:19:40.342Z,97223.03
2022-09-13T05:22:07.945Z,97227.19
2022-09-13T05:24:35.147Z,97229.50
2022-09-13T05:27:02.006Z,97251.31
2022-09-13T05:29:28.880Z,97213.91
2022-09-13T05:31:55.861Z,97232.97
2022-09-13T05:34:22.714Z,97241.78
2022-09-13T05:36:54.220Z,97240.91
2022-09-13T05:39:36.382Z,97228.19
2022-09-13T05:42:08.901Z,97229.88
2022-09-13T05:44:38.763Z,97241.38
2022-09-13T05:47:07.262Z,97246.81
2022-09-13T05:49:34.400Z,97236.78
2022-09-13T05:52:01.471Z,97212.22
2022-09-13T05:54:28.407Z,97200.16
2022-09-13T05:56:57.717Z,97238.03
2022-09-13T05:59:24.830Z,97239.16
2022-09-13T06:01:51.992Z,97249.47
2022-09-13T06:04:18.855Z,97271.81
2022-09-13T06:06:45.393Z,97266.50
2022-09-13T06:09:13.223Z,97267.94
2022-09-13T06:11:39.957Z,97240.09
2022-09-13T06:14:09.642Z,97267.28
2022-09-13T06:17:23.530Z,97221.50
2022-09-13T06:23:33.537Z,97238.63
2022-09-13T06:26:08.698Z,97247.41
2022-09-13T06:28:38.530Z,97249.66
2022-09-13T06:31:08.725Z,97248.78
2022-09-13T06:33:39.966Z,97244.50
2022-09-13T06:36:11.368Z,97232.41
2022-09-13T06:38:41.889Z,97226.31
2022-09-13T06:41:11.279Z,97253.53
2022-09-13T06:43:38.538Z,97225.88
2022-09-13T06:46:15.507Z,97247.13
2022-09-13T06:48:43.955Z,97242.63
2022-09-13T06:51:18.298Z,97238.94
2022-09-13T06:53:47.057Z,97239.53
2022-09-13T06:56:16.733Z,97219.25
2022-09-13T06:58:45.117Z,97233.41
2022-09-13T07:01:26.876Z,97233.50
2022-09-13T07:03:58.240Z,97240.06
2022-09-13T07:06:27.842Z,97239.06
2022-09-13T07:12:24.492Z,97236.44
2022-09-13T07:14:51.034Z,97219.09
2022-09-13T07:17:17.540Z,97218.31
2022-09-13T07:19:44.094Z,97212.63
2022-09-13T07:22:10.588Z,97226.94
2022-09-13T07:24:40.106Z,97233.75
2022-09-13T07:27:09.341Z,97228.91
2022-09-13T07:29:38.237Z,97229.03
2022-09-13T07:34:31.296Z,97243.22
2022-09-13T07:36:57.803Z,97216.63
2022-09-13T07:39:24.417Z,97222.81
2022-09-13T07:41:52.128Z,97227.03
2022-09-13T07:44:18.640Z,97222.19
2022-09-13T07:46:45.217Z,97230.09
2022-09-13T07:49:13.868Z,97216.50
2022-09-13T07:51:42.783Z,97217.53
2022-09-13T07:54:15.981Z,97221.28
2022-09-13T07:56:43.629Z,97215.13
2022-09-13T07:59:15.264Z,97229.19
2022-09-13T08:01:47.887Z,97229.28
2022-09-13T08:04:17.964Z,97224.53
2022-09-13T08:06:44.967Z,97241.22
2022-09-13T08:09:12.229Z,97242.25
2022-09-13T08:11:41.409Z,97241.97
2022-09-13T08:14:10.960Z,97241.28
2022-09-13T08:16:41.001Z,97251.00
2022-09-13T08:19:10.553Z,97241.13
2022-09-13T08:21:38.686Z,97233.28
2022-09-13T08:24:08.652Z,97232.44
2022-09-13T08:26:38.518Z,97231.22
2022-09-13T08:29:07.438Z,97239.78
2022-09-13T08:31:34.924Z,97239.69
2022-09-13T08:34:01.951Z,97232.81
2022-09-13T08:36:29.972Z,97221.78
2022-09-13T08:38:59.295Z,97226.63
2022-09-13T08:41:48.004Z,97232.09
2022-09-13T08:44:35.020Z,97222.38
2022-09-13T08:47:22.274Z,97230.84
2022-09-13T08:49:52.285Z,97248.34
2022-09-13T08:52:30.556Z,97239.16
2022-09-13T08:55:00.003Z,97219.25
2022-09-13T08:57:37.194Z,97246.56
2022-09-13T09:00:03.955Z,97239.75
2022-09-13T09:02:55.536Z,97241.09
2022-09-13T09:05:29.171Z,97250.44
2022-09-13T09:08:01.502Z,97256.06
2022-09-13T09:10:37.983Z,97251.19
2022-09-13T09:13:31.389Z,97237.56
2022-09-13T09:16:20.820Z,97244.31
2022-09-13T09:18:48.735Z,97238.06
2022-09-13T09:21:18.483Z,97231.66
2022-09-13T09:23:54.346Z,97223.38
2022-09-13T09:26:30.272Z,97213.13
2022-09-13T09:29:28.115Z,97217.56
2022-09-13T09:32:09.255Z,97223.16
2022-09-13T09:35:03.002Z,97223.91
2022-09-13T09:37:30.775Z,97215.09
2022-09-13T09:40:08.517Z,97216.31
2022-09-13T09:42:44.033Z,97216.69
2022-09-13T09:45:35.853Z,97213.34
2022-09-13T09:48:09.456Z,97224.53
2022-09-13T09:50:43.616Z,97225.53
2022-09-13T09:53:27.102Z,97215.78
2022-09-13T09:56:03.872Z,97223.06
2022-09-13T09:58:41.500Z,97215.53
2022-09-13T10:01:24.951Z,97217.38
2022-09-13T10:04:05.911Z,97205.03
2022-09-13T10:06:32.679Z,97220.69
2022-09-13T10:09:15.346Z,97216.00
2022-09-13T10:11:57.409Z,97221.56
2022-09-13T10:14:45.940Z,97224.03
2022-09-13T10:17:18.253Z,97223.00
2022-09-13T10:19:59.423Z,97208.91
2022-09-13T10:22:27.280Z,97205.09
2022-09-13T10:24:54.140Z,97195.69
2022-09-13T10:27:28.369Z,97194.47
2022-09-13T10:29:59.759Z,97190.81
2022-09-13T10:32:28.591Z,97194.47
2022-09-13T10:34:58.141Z,97196.84
2022-09-13T10:37:33.845Z,97176.13
2022-09-13T10:40:11.617Z,97202.47
2022-09-13T10:42:40.944Z,97205.19
2022-09-13T10:45:20.599Z,97209.25
2022-09-13T10:47:49.524Z,97210.63
2022-09-13T10:50:25.897Z,97200.91
2022-09-13T10:52:57.848Z,97196.50
2022-09-13T10:55:24.372Z,97191.38
2022-09-13T10:57:53.059Z,97192.25
2022-09-13T11:00:30.963Z,97191.56
2022-09-13T11:03:34.589Z,97201.47
2022-09-13T11:06:24.610Z,97202.16
2022-09-13T11:09:09.765Z,97191.84
2022-09-13T11:11:47.105Z,97196.63
2022-09-13T11:14:21.707Z,97196.22
2022-09-13T11:16:51.227Z,97191.84
2022-09-13T11:19:52.084Z,97187.13
2022-09-13T11:22:38.854Z,97177.00
2022-09-13T11:25:29.840Z,97178.44
2022-09-13T11:28:27.334Z,97170.59
2022-09-13T11:31:27.830Z,97168.41
2022-09-13T11:34:06.480Z,97172.97
2022-09-13T11:36:33.220Z,97156.34
2022-09-13T11:39:13.695Z,97159.25
2022-09-13T11:42:33.350Z,97137.56
2022-09-13T11:45:23.752Z,97156.81
2022-09-13T11:48:10.744Z,97160.44
2022-09-13T11:51:06.661Z,97154.41
2022-09-13T11:53:57.914Z,97131.63
2022-09-13T11:56:34.692Z,97150.50
2022-09-13T11:59:15.610Z,97149.50
2022-09-13T12:01:50.522Z,97142.84
2022-09-13T12:04:59.353Z,97141.63
2022-09-13T12:07:44.070Z,97146.88
2022-09-13T12:10:38.613Z,97147.28
2022-09-13T12:13:15.169Z,97143.38
2022-09-13T12:15:44.512Z,97143.28
2022-09-13T12:18:24.569Z,97126.84
2022-09-13T12:20:55.009Z,97127.75
2022-09-13T12:23:31.366Z,97132.53
2022-09-13T12:26:03.375Z,97116.53
2022-09-13T12:28:35.445Z,97111.75
2022-09-13T12:31:07.060Z,97125.41
2022-09-13T12:33:34.020Z,97124.69
2022-09-13T12:36:10.405Z,97122.03
2022-09-13T12:39:09.933Z,97124.22
2022-09-13T12:42:02.640Z,97109.50
2022-09-13T12:44:46.437Z,97116.19
2022-09-13T12:47:40.949Z,97117.28
2022-09-13T12:50:48.247Z,97116.72
2022-09-13T12:53:29.808Z,97111.97
2022-09-13T12:56:39.936Z,97103.22
2022-09-13T12:59:09.189Z,97104.09
2022-09-13T13:01:36.011Z,97090.59
2022-09-13T13:04:04.727Z,97094.03
2022-09-13T13:06:37.815Z,97096.47
2022-09-13T13:09:26.482Z,97085.06
2022-09-13T13:11:58.425Z,97081.16
2022-09-13T13:14:47.592Z,97078.06
2022-09-13T13:17:41.320Z,97072.44
2022-09-13T13:20:45.938Z,97068.44
2022-09-13T13:23:15.902Z,97056.16
2022-09-13T13:25:56.330Z,97051.47
2022-09-13T13:29:03.676Z,97031.53
2022-09-13T13:31:30.259Z,97045.16
2022-09-13T13:34:01.412Z,97046.03
2022-09-13T13:36:40.666Z,97043.84
2022-09-13T13:39:25.474Z,97037.47
2022-09-13T13:41:51.913Z,97030.19
2022-09-13T13:44:18.441Z,97024.72
2022-09-13T13:46:45.167Z,97030.88
2022-09-13T13:49:32.927Z,97023.47
2022-09-13T13:52:11.932Z,97019.94
2022-09-13T13:54:58.584Z,97025.91
2022-09-13T13:57:44.466Z,97015.34
2022-09-13T14:00:11.576Z,97014.59
2022-09-13T14:02:51.304Z,97004.09
2022-09-13T14:05:17.792Z,96999.69
2022-09-13T14:08:02.485Z,96994.53
2022-09-13T14:10:42.415Z,96987.69
2022-09-13T14:13:18.208Z,96986.03
2022-09-13T14:16:12.901Z,96989.88
2022-09-13T14:19:01.366Z,96988.63
2022-09-13T14:21:30.857Z,96993.41
2022-09-13T14:24:16.026Z,97004.09
2022-09-13T14:26:45.883Z,96981.81
2022-09-13T14:29:16.738Z,96974.78
2022-09-13T14:31:46.925Z,96986.13
2022-09-13T14:34:31.445Z,97013.81
2022-09-13T14:37:03.977Z,97008.41
2022-09-13T14:39:31.078Z,97015.69
2022-09-13T14:42:03.187Z,97026.50
2022-09-13T14:44:30.207Z,97022.50
2022-09-13T14:47:15.506Z,97011.75
2022-09-13T14:49:49.137Z,96992.09
2022-09-13T14:52:35.140Z,96987.75
2022-09-13T14:55:09.802Z,96965.41
2022-09-13T14:57:42.071Z,96976.66
2022-09-13T15:00:23.066Z,96959.47
2022-09-13T15:02:54.041Z,96985.31
2022-09-13T15:05:24.179Z,96994.50
2022-09-13T15:07:50.949Z,96992.41
2022-09-13T15:10:17.390Z,96990.31
2022-09-13T15:12:53.874Z,96991.97
2022-09-13T15:15:41.171Z,96975.22
2022-09-13T15:18:16.549Z,96980.81
2022-09-13T15:21:03.676Z,96991.25
2022-09-13T15:23:38.935Z,96985.63
2022-09-13T15:26:08.683Z,96984.63
2022-09-13T15:28:43.957Z,96990.09
2022-09-13T15:31:19.735Z,97002.91
2022-09-13T15:33:49.803Z,97000.72
2022-09-13T15:36:28.654Z,96999.66
2022-09-13T15:39:17.470Z,97026.97
2022-09-13T15:42:00.647Z,97034.53
2022-09-13T15:44:29.930Z,97041.38
2022-09-13T15:46:59.897Z,97035.34
2022-09-13T15:49:28.757Z,97040.38
2022-09-13T15:52:00.592Z,97019.16
2022-09-13T15:54:36.950Z,97039.13
2022-09-13T15:57:08.704Z,97033.84
2022-09-13T15:59:35.800Z,97031.56
2022-09-13T16:02:16.490Z,97021.66
2022-09-13T16:04:43.611Z,97023.94
2022-09-13T16:07:10.200Z,97019.91
2022-09-13T16:09:38.779Z,97032.75
2022-09-13T16:12:05.582Z,97029.00
2022-09-13T16:14:32.305Z,97035.19
2022-09-13T16:17:02.947Z,97032.25
2022-09-13T16:19:29.530Z,97014.41
2022-09-13T16:21:56.036Z,97025.69
2022-09-13T16:24:22.573Z,97016.03
2022-09-13T16:26:49.069Z,97032.75
2022-09-13T16:29:15.617Z,97034.97
2022-09-13T16:31:42.227Z,97024.81
2022-09-13T16:34:10.982Z,97047.66
2022-09-13T16:36:37.675Z,97040.88
2022-09-13T16:39:05.454Z,97060.09
2022-09-13T16:41:32.050Z,97057.16
2022-09-13T16:43:58.599Z,97047.88
2022-09-13T16:46:28.602Z,97040.06
2022-09-13T16:48:57.172Z,97037.38
2022-09-13T16:51:24.457Z,97018.50
2022-09-13T16:53:52.622Z,97024.59
2022-09-13T16:56:22.765Z,97028.94
2022-09-13T16:58:50.296Z,97014.16
2022-09-13T17:01:22.244Z,97021.16
2022-09-13T17:03:53.960Z,97027.91
2022-09-13T17:06:22.472Z,97029.22
2022-09-13T17:09:03.672Z,97001.25
2022-09-13T17:11:35.261Z,97019.72
2022-09-13T17:14:04.879Z,97013.25
2022-09-13T17:16:39.152Z,97011.94
2022-09-13T17:19:08.693Z,97009.75
2022-09-13T17:21:35.287Z,96992.19
2022-09-13T17:24:02.385Z,96986.50
2022-09-13T17:26:29.374Z,96991.97
2022-09-13T17:28:55.992Z,97000.94
2022-09-13T17:31:23.116Z,97004.78
2022-09-13T17:33:50.176Z,97005.00
2022-09-13T17:36:17.274Z,96991.44
2022-09-13T17:38:43.940Z,97006.59
2022-09-13T17:41:13.231Z,97007.47
2022-09-13T17:43:41.839Z,96979.22
2022-09-13T17:46:14.164Z,97005.41
2022-09-13T17:48:40.898Z,96998.00
2022-09-13T17:51:11.083Z,97012.31
2022-09-13T17:53:39.512Z,97011.28
2022-09-13T17:56:07.579Z,97011.25
2022-09-13T17:58:35.197Z,97015.88
2022-09-13T18:01:07.327Z,97007.56
2022-09-13T18:03:35.105Z,97015.97
2022-09-13T18:06:02.709Z,97028.06
2022-09-13T18:08:31.517Z,97034.56
2022-09-13T18:11:13.912Z,97034.00
2022-09-13T18:13:43.113Z,97032.44
2022-09-13T18:16:15.095Z,97051.34
2022-09-13T18:18:46.581Z,97057.06
2022-09-13T18:21:20.915Z,97064.38
2022-09-13T18:23:52.822Z,97068.16
2022-09-13T18:26:23.564Z,97071.16
2022-09-13T18:29:01.754Z,97074.19
2022-09-13T18:31:30.270Z,97068.56
2022-09-13T18:33:59.800Z,97076.16
2022-09-13T18:36:28.235Z,97067.06
2022-09-13T18:38:56.333Z,97087.59
2022-09-13T18:41:25.349Z,97100.31
2022-09-13T18:43:55.768Z,97100.06
2022-09-13T18:46:30.688Z,97093.13
2022-09-13T18:48:58.235Z,97103.38
2022-09-13T18:51:28.144Z,97108.84
2022-09-13T18:53:55.821Z,97106.44
2022-09-13T18:56:23.689Z,97111.56
2022-09-13T18:58:52.372Z,97121.59
2022-09-13T19:01:23.145Z,97125.66
2022-09-13T19:03:52.609Z,97094.69
2022-09-13T19:06:34.040Z,97122.25
2022-09-13T19:09:01.638Z,97088.75
2022-09-13T19:11:49.390Z,97091.75
2022-09-13T19:14:27.701Z,97099.63
2022-09-13T19:16:56.476Z,97087.19
2022-09-13T19:19:24.102Z,97089.06
2022-09-13T19:21:50.605Z,97109.63
2022-09-13T19:24:18.604Z,97112.06
2022-09-13T19:26:50.908Z,97113.41
2022-09-13T19:29:20.307Z,97106.94
2022-09-13T19:31:53.061Z,97113.41
2022-09-13T19:34:21.961Z,97106.13
2022-09-13T19:36:57.336Z,97103.13
2022-09-13T19:39:28.541Z,97085.56
2022-09-13T19:41:56.702Z,97100.69
2022-09-13T19:44:23.230Z,97102.31
2022-09-13T19:47:14.887Z,97094.50
2022-09-13T19:49:40.301Z,97083.91
2022-09-13T19:52:06.794Z,97089.31
2022-09-13T19:54:33.280Z,97086.84
2022-09-13T19:57:00.496Z,97094.16
2022-09-13T19:59:27.187Z,97096.88
2022-09-13T20:01:53.821Z,97088.19
2022-09-13T20:04:25.194Z,97056.88
2022-09-13T20:06:52.103Z,97079.31
2022-09-13T20:09:20.471Z,97048.50
2022-09-13T20:11:50.636Z,97066.56
2022-09-13T20:14:21.751Z,97069.00
2022-09-13T20:16:48.668Z,97065.50
2022-09-13T20:19:49.311Z,97077.34
2022-09-13T20:22:18.369Z,97077.63
2022-09-13T20:24:44.906Z,97058.69
2022-09-13T20:27:11.528Z,97074.66
2022-09-13T20:29:38.168Z,97063.81
2022-09-13T20:32:04.747Z,97044.66
2022-09-13T20:34:31.920Z,97069.53
2022-09-13T20:36:58.496Z,97070.34
2022-09-13T20:39:25.291Z,97055.75
2022-09-13T20:41:53.743Z,97062.25
2022-09-13T20:44:20.364Z,97072.47
2022-09-13T20:46:47.490Z,97048.41
2022-09-13T20:49:14.051Z,97057.31
2022-09-13T20:51:40.616Z,97076.00
2022-09-13T20:54:07.736Z,97077.63
2022-09-13T20:56:36.783Z,97070.31
2022-09-13T20:59:04.648Z,97067.59
2022-09-13T21:01:32.840Z,97085.72
2022-09-13T21:04:00.466Z,97097.03
2022-09-13T21:06:29.448Z,97083.50
2022-09-13T21:08:59.598Z,97086.47
2022-09-13T21:11:33.996Z,97102.94
2022-09-13T21:14:02.985Z,97120.50
2022-09-13T21:16:33.259Z,97124.25
2022-09-13T21:19:03.452Z,97108.06
2022-09-13T21:21:33.285Z,97114.53
2022-09-13T21:24:04.395Z,97114.22
2022-09-13T21:26:31.263Z,97118.44
2022-09-13T21:28:58.927Z,97104.44
2022-09-13T21:31:30.649Z,97117.69
2022-09-13T21:34:17.541Z,97124.44
2022-09-13T21:36:45.260Z,97132.53
2022-09-13T21:39:12.763Z,97127.16
2022-09-13T21:41:40.118Z,97129.22
2022-09-13T21:44:07.063Z,97130.53
2022-09-13T21:46:35.641Z,97117.88
2022-09-13T21:49:05.049Z,97130.78
2022-09-13T21:51:36.250Z,97136.19
2022-09-13T21:54:08.672Z,97132.38
2022-09-13T21:56:45.610Z,97119.94
2022-09-13T21:59:16.976Z,97113.97
2022-09-13T22:01:46.906Z,97135.31
2022-09-13T22:04:17.339Z,97128.31
2022-09-13T22:06:45.414Z,97135.59
2022-09-13T22:09:13.526Z,97134.19
2022-09-13T22:11:43.740Z,97097.44
2022-09-13T22:14:13.254Z,97122.63
2022-09-13T22:16:41.402Z,97116.66
2022-09-13T22:19:11.814Z,97114.16
2022-09-13T22:21:41.330Z,97125.50
2022-09-13T22:24:09.843Z,97100.84
2022-09-13T22:26:38.451Z,97109.22
2022-09-13T22:29:05.252Z,97118.66
2022-09-13T22:31:35.370Z,97121.28
2022-09-13T22:34:02.440Z,97113.56
2022-09-13T22:36:32.144Z,97109.09
2022-09-13T22:39:01.571Z,97092.59
2022-09-13T22:41:33.350Z,97090.94
2022-09-13T22:44:01.196Z,97108.81
2022-09-13T22:46:33.127Z,97104.50
2022-09-13T22:48:59.933Z,97085.38
2022-09-13T22:51:26.954Z,97097.16
2022-09-13T22:53:54.642Z,97108.31
2022-09-13T22:56:25.006Z,97110.75
2022-09-13T22:58:56.572Z,97103.19
2022-09-13T23:01:24.003Z,97107.50
2022-09-13T23:03:51.550Z,97099.84
2022-09-13T23:06:19.969Z,97077.66
2022-09-13T23:08:51.746Z,97106.41
2022-09-13T23:11:22.431Z,97104.06
2022-09-13T23:13:51.020Z,97109.31
2022-09-13T23:16:30.173Z,97099.66
2022-09-13T23:18:57.260Z,97107.50
2022-09-13T23:21:26.660Z,97088.34
2022-09-13T23:23:54.257Z,97111.00
2022-09-13T23:26:23.364Z,97103.97
2022-09-13T23:28:56.427Z,97095.84
2022-09-13T23:31:26.625Z,97112.13
2022-09-13T23:33:56.387Z,97101.31
2022-09-13T23:36:26.014Z,97109.50
2022-09-13T23:38:55.339Z,97126.25
2022-09-13T23:41:22.698Z,97141.31
2022-09-13T23:43:49.768Z,97139.38
2022-09-13T23:46:16.788Z,97136.91
2022-09-13T23:48:44.351Z,97145.56
2022-09-13T23:51:14.084Z,97153.06
2022-09-13T23:53:41.292Z,97133.00
2022-09-13T23:56:08.576Z,97156.06
2022-09-13T23:58:36.611Z,97158.69
